createdAt,value
2023-03-18T00:00:10.770Z,5.61
2023-03-18T00:00:50.234Z,5.61
2023-03-18T00:01:12.666Z,5.61
2023-03-18T00:01:42.907Z,5.61
2023-03-18T00:02:14.640Z,5.61
2023-03-18T00:02:46.021Z,5.61
2023-03-18T00:03:16.628Z,5.72
2023-03-18T00:03:46.967Z,5.72
2023-03-18T00:04:19.282Z,5.77
2023-03-18T00:04:49.575Z,5.77
2023-03-18T00:05:20.678Z,5.77
2023-03-18T00:05:51.300Z,5.77
2023-03-18T00:06:22.584Z,5.77
2023-03-18T00:06:52.922Z,5.77
2023-03-18T00:07:24.680Z,5.77
2023-03-18T00:07:55.987Z,5.72
2023-03-18T00:08:26.611Z,5.61
2023-03-18T00:08:57.041Z,5.50
2023-03-18T00:09:28.613Z,5.50
2023-03-18T00:09:59.037Z,5.50
2023-03-18T00:10:31.494Z,5.50
2023-03-18T00:11:01.002Z,5.50
2023-03-18T00:11:34.147Z,5.50
2023-03-18T00:12:03.026Z,5.38
2023-03-18T00:12:34.730Z,5.38
2023-03-18T00:13:05.918Z,5.38
2023-03-18T00:14:09.990Z,5.38
2023-03-18T00:14:38.890Z,5.38
2023-03-18T00:15:09.648Z,5.38
2023-03-18T00:15:41.562Z,5.38
2023-03-18T00:16:11.034Z,5.38
2023-03-18T00:16:42.792Z,5.38
2023-03-18T00:17:12.868Z,5.38
2023-03-18T00:17:44.817Z,5.38
2023-03-18T00:18:16.014Z,5.38
2023-03-18T00:18:46.621Z,5.38
2023-03-18T00:19:16.873Z,5.38
2023-03-18T00:19:48.560Z,5.38
2023-03-18T00:20:18.882Z,5.27
2023-03-18T00:20:51.607Z,5.27
2023-03-18T00:21:21.301Z,5.27
2023-03-18T00:21:52.601Z,5.22
2023-03-18T00:22:23.012Z,5.22
2023-03-18T00:22:54.833Z,5.22
2023-03-18T00:23:25.877Z,5.22
2023-03-18T00:23:56.630Z,5.11
2023-03-18T00:24:26.880Z,5.00
2023-03-18T00:24:59.161Z,4.88
2023-03-18T00:25:29.399Z,4.88
2023-03-18T00:26:00.915Z,4.88
2023-03-18T00:26:30.889Z,4.77
2023-03-18T00:27:02.925Z,4.77
2023-03-18T00:27:32.898Z,4.77
2023-03-18T00:28:04.623Z,4.72
2023-03-18T00:28:36.396Z,4.72
2023-03-18T00:29:06.066Z,4.72
2023-03-18T00:29:36.890Z,4.72
2023-03-18T00:30:10.564Z,4.72
2023-03-18T00:30:39.015Z,4.72
2023-03-18T00:31:10.669Z,4.72
2023-03-18T00:31:41.615Z,4.72
2023-03-18T00:32:12.601Z,4.77
2023-03-18T00:32:42.948Z,4.77
2023-03-18T00:33:14.646Z,4.72
2023-03-18T00:33:46.040Z,4.72
2023-03-18T00:34:16.587Z,4.72
2023-03-18T00:34:46.893Z,4.72
2023-03-18T00:35:19.579Z,4.77
2023-03-18T00:35:49.063Z,4.77
2023-03-18T00:36:20.712Z,4.77
2023-03-18T00:36:50.923Z,4.77
2023-03-18T00:37:22.707Z,4.88
2023-03-18T00:37:53.099Z,4.88
2023-03-18T00:38:24.968Z,4.88
2023-03-18T00:38:55.859Z,5.00
2023-03-18T00:39:26.640Z,5.11
2023-03-18T00:39:56.928Z,5.11
2023-03-18T00:40:44.079Z,5.11
2023-03-18T00:40:59.015Z,5.11
2023-03-18T00:41:30.599Z,5.00
2023-03-18T00:42:00.875Z,5.00
2023-03-18T00:42:32.635Z,5.00
2023-03-18T00:43:02.984Z,5.00
2023-03-18T00:43:34.581Z,5.00
2023-03-18T00:44:06.039Z,5.00
2023-03-18T00:44:36.641Z,4.88
2023-03-18T00:45:08.345Z,4.88
2023-03-18T00:45:38.949Z,4.77
2023-03-18T00:46:09.609Z,4.77
2023-03-18T00:46:40.652Z,4.77
2023-03-18T00:47:10.889Z,4.77
2023-03-18T00:47:42.622Z,4.77
2023-03-18T00:48:12.928Z,4.77
2023-03-18T00:48:44.597Z,4.77
2023-03-18T00:49:15.914Z,4.77
2023-03-18T00:49:46.556Z,4.77
2023-03-18T00:50:17.345Z,4.77
2023-03-18T00:50:48.680Z,4.72
2023-03-18T00:51:18.935Z,4.72
2023-03-18T00:51:51.374Z,4.61
2023-03-18T00:52:20.883Z,4.61
2023-03-18T00:52:52.597Z,4.50
2023-03-18T00:53:22.885Z,4.50
2023-03-18T00:53:54.601Z,4.50
2023-03-18T00:54:26.505Z,4.50
2023-03-18T00:54:56.597Z,4.50
2023-03-18T00:55:27.322Z,4.50
2023-03-18T00:55:58.854Z,4.50
2023-03-18T00:56:28.979Z,4.50
2023-03-18T00:57:00.892Z,4.50
2023-03-18T00:57:30.860Z,4.50
2023-03-18T00:58:02.651Z,4.50
2023-03-18T00:58:33.467Z,4.50
2023-03-18T00:59:04.586Z,4.50
2023-03-18T00:59:35.892Z,4.50
2023-03-18T01:00:08.005Z,4.50
2023-03-18T01:00:51.972Z,4.50
2023-03-18T01:01:08.668Z,4.50
2023-03-18T01:01:38.983Z,4.50
2023-03-18T01:02:10.822Z,4.50
2023-03-18T01:02:41.265Z,4.50
2023-03-18T01:03:12.781Z,4.50
2023-03-18T01:03:42.929Z,4.38
2023-03-18T01:04:14.654Z,4.38
2023-03-18T01:04:45.895Z,4.38
2023-03-18T01:05:17.512Z,4.27
2023-03-18T01:05:46.885Z,4.27
2023-03-18T01:06:19.183Z,4.27
2023-03-18T01:06:48.953Z,4.27
2023-03-18T01:07:20.796Z,4.27
2023-03-18T01:07:50.946Z,4.27
2023-03-18T01:08:22.615Z,4.27
2023-03-18T01:08:52.904Z,4.38
2023-03-18T01:09:24.569Z,4.38
2023-03-18T01:09:55.898Z,4.38
2023-03-18T01:10:26.973Z,4.38
2023-03-18T01:10:56.949Z,4.38
2023-03-18T01:11:28.729Z,4.27
2023-03-18T01:11:59.550Z,4.27
2023-03-18T01:12:30.601Z,4.27
2023-03-18T01:13:01.114Z,4.22
2023-03-18T01:13:32.585Z,4.22
2023-03-18T01:14:03.223Z,4.22
2023-03-18T01:14:35.907Z,4.22
2023-03-18T01:15:06.977Z,4.22
2023-03-18T01:15:36.663Z,4.27
2023-03-18T01:16:07.323Z,4.27
2023-03-18T01:16:38.974Z,4.27
2023-03-18T01:17:08.998Z,4.27
2023-03-18T01:17:40.560Z,4.27
2023-03-18T01:18:10.875Z,4.38
2023-03-18T01:18:43.204Z,4.38
2023-03-18T01:19:12.889Z,4.50
2023-03-18T01:19:44.638Z,4.50
2023-03-18T01:20:16.350Z,4.50
2023-03-18T01:20:46.663Z,4.50
2023-03-18T01:21:16.861Z,4.50
2023-03-18T01:21:48.563Z,4.50
2023-03-18T01:22:18.919Z,4.50
2023-03-18T01:22:50.567Z,4.50
2023-03-18T01:23:20.910Z,4.50
2023-03-18T01:23:52.580Z,4.50
2023-03-18T01:24:22.940Z,4.50
2023-03-18T01:24:54.632Z,4.50
2023-03-18T01:25:26.670Z,4.50
2023-03-18T01:25:56.586Z,4.61
2023-03-18T01:26:26.949Z,4.61
2023-03-18T01:26:59.233Z,4.61
2023-03-18T01:27:28.914Z,4.61
2023-03-18T01:28:00.845Z,4.50
2023-03-18T01:28:30.939Z,4.50
2023-03-18T01:29:01.916Z,4.50
2023-03-18T01:29:33.191Z,4.50
2023-03-18T01:30:06.038Z,4.50
2023-03-18T01:30:35.924Z,4.50
2023-03-18T01:31:06.562Z,4.50
2023-03-18T01:31:37.040Z,4.50
2023-03-18T01:32:09.212Z,4.50
2023-03-18T01:32:38.982Z,4.50
2023-03-18T01:33:10.700Z,4.50
2023-03-18T01:33:40.883Z,4.38
2023-03-18T01:34:12.568Z,4.38
2023-03-18T01:34:42.900Z,4.27
2023-03-18T01:35:15.068Z,4.27
2023-03-18T01:35:46.010Z,4.27
2023-03-18T01:36:17.053Z,4.27
2023-03-18T01:36:46.908Z,4.38
2023-03-18T01:37:19.320Z,4.38
2023-03-18T01:37:48.930Z,4.38
2023-03-18T01:38:20.637Z,4.38
2023-03-18T01:38:50.930Z,4.27
2023-03-18T01:39:22.694Z,4.27
2023-03-18T01:39:52.922Z,4.27
2023-03-18T01:40:25.036Z,4.27
2023-03-18T01:40:55.920Z,4.27
2023-03-18T01:41:26.597Z,4.27
2023-03-18T01:41:56.900Z,4.27
2023-03-18T01:42:28.615Z,4.38
2023-03-18T01:42:59.261Z,4.38
2023-03-18T01:43:30.643Z,4.38
2023-03-18T01:44:00.982Z,4.50
2023-03-18T01:44:32.585Z,4.50
2023-03-18T01:45:03.952Z,4.50
2023-03-18T01:45:35.524Z,4.50
2023-03-18T01:46:05.913Z,4.50
2023-03-18T01:46:36.926Z,4.50
2023-03-18T01:47:07.139Z,4.50
2023-03-18T01:47:38.885Z,4.50
2023-03-18T01:48:09.369Z,4.50
2023-03-18T01:48:40.620Z,4.50
2023-03-18T01:49:10.954Z,4.61
2023-03-18T01:49:42.632Z,4.61
2023-03-18T01:50:13.425Z,4.61
2023-03-18T01:50:44.560Z,4.61
2023-03-18T01:51:15.828Z,4.61
2023-03-18T01:51:46.550Z,4.61
2023-03-18T01:52:16.872Z,4.50
2023-03-18T01:52:48.563Z,4.50
2023-03-18T01:53:18.874Z,4.38
2023-03-18T01:53:50.597Z,4.38
2023-03-18T01:54:20.918Z,4.38
2023-03-18T01:54:52.575Z,4.38
2023-03-18T01:55:23.364Z,4.38
2023-03-18T01:55:54.574Z,4.38
2023-03-18T01:56:25.855Z,4.38
2023-03-18T01:56:56.579Z,4.27
2023-03-18T01:57:26.914Z,4.27
2023-03-18T01:57:58.879Z,4.22
2023-03-18T01:58:28.859Z,4.11
2023-03-18T01:59:01.645Z,4.11
2023-03-18T01:59:30.862Z,4.11
2023-03-18T02:00:03.664Z,4.11
2023-03-18T02:00:33.317Z,4.00
2023-03-18T02:01:04.631Z,4.00
2023-03-18T02:01:35.848Z,4.00
2023-03-18T02:02:06.737Z,4.00
2023-03-18T02:02:36.854Z,4.00
2023-03-18T02:03:08.580Z,4.00
2023-03-18T02:03:38.901Z,4.00
2023-03-18T02:04:10.622Z,4.00
2023-03-18T02:04:40.884Z,4.00
2023-03-18T02:05:13.085Z,3.88
2023-03-18T02:05:42.839Z,3.88
2023-03-18T02:06:15.103Z,3.88
2023-03-18T02:06:45.879Z,3.88
2023-03-18T02:07:16.591Z,3.88
2023-03-18T02:07:46.847Z,3.88
2023-03-18T02:08:19.853Z,4.00
2023-03-18T02:08:48.859Z,4.00
2023-03-18T02:09:20.811Z,4.00
2023-03-18T02:09:51.578Z,4.11
2023-03-18T02:10:23.458Z,4.11
2023-03-18T02:10:52.882Z,4.22
2023-03-18T02:11:25.618Z,4.22
2023-03-18T02:11:55.911Z,4.22
2023-03-18T02:12:27.293Z,4.22
2023-03-18T02:12:56.892Z,4.22
2023-03-18T02:13:28.590Z,4.22
2023-03-18T02:13:58.865Z,4.22
2023-03-18T02:14:30.631Z,4.22
2023-03-18T02:15:01.371Z,4.22
2023-03-18T02:15:33.365Z,4.11
2023-03-18T02:16:03.026Z,4.11
2023-03-18T02:16:34.663Z,3.88
2023-03-18T02:17:05.894Z,3.88
2023-03-18T02:17:37.336Z,3.77
2023-03-18T02:18:06.892Z,3.72
2023-03-18T02:18:38.892Z,3.61
2023-03-18T02:19:08.845Z,3.50
2023-03-18T02:19:40.563Z,3.38
2023-03-18T02:20:11.549Z,3.38
2023-03-18T02:20:44.727Z,3.27
2023-03-18T02:21:12.945Z,3.27
2023-03-18T02:21:44.618Z,3.22
2023-03-18T02:22:15.878Z,3.11
2023-03-18T02:22:46.560Z,3.00
2023-03-18T02:23:17.360Z,3.00
2023-03-18T02:23:48.579Z,3.00
2023-03-18T02:24:18.849Z,3.00
2023-03-18T02:24:50.585Z,3.00
2023-03-18T02:25:21.319Z,3.00
2023-03-18T02:25:53.147Z,3.00
2023-03-18T02:26:22.973Z,3.00
2023-03-18T02:26:54.559Z,3.00
2023-03-18T02:27:25.897Z,3.00
2023-03-18T02:27:56.601Z,3.00
2023-03-18T02:28:26.892Z,3.11
2023-03-18T02:28:58.881Z,3.11
2023-03-18T02:29:28.959Z,3.11
2023-03-18T02:30:01.092Z,3.11
2023-03-18T02:30:32.628Z,3.11
2023-03-18T02:31:01.987Z,3.11
2023-03-18T02:31:34.275Z,3.22
2023-03-18T02:32:04.082Z,3.22
2023-03-18T02:32:37.488Z,3.22
2023-03-18T02:33:05.920Z,3.22
2023-03-18T02:33:36.866Z,3.22
2023-03-18T02:34:08.571Z,3.27
2023-03-18T02:34:38.921Z,3.27
2023-03-18T02:35:11.045Z,3.38
2023-03-18T02:35:40.884Z,3.50
2023-03-18T02:36:12.599Z,3.50
2023-03-18T02:36:43.474Z,3.50
2023-03-18T02:37:14.581Z,3.50
2023-03-18T02:37:45.888Z,3.50
2023-03-18T02:38:16.577Z,3.50
2023-03-18T02:38:46.931Z,3.38
2023-03-18T02:39:19.493Z,3.38
2023-03-18T02:39:48.862Z,3.38
2023-03-18T02:40:21.125Z,3.38
2023-03-18T02:40:50.856Z,3.38
2023-03-18T02:41:22.554Z,3.38
2023-03-18T02:41:52.860Z,3.38
2023-03-18T02:42:24.643Z,3.27
2023-03-18T02:42:55.861Z,3.27
2023-03-18T02:43:26.612Z,3.27
2023-03-18T02:43:56.972Z,3.27
2023-03-18T02:44:28.755Z,3.22
2023-03-18T02:44:58.882Z,3.22
2023-03-18T02:45:31.492Z,3.22
2023-03-18T02:46:01.038Z,3.11
2023-03-18T02:46:32.571Z,3.11
2023-03-18T02:47:02.953Z,3.11
2023-03-18T02:47:34.601Z,3.22
2023-03-18T02:48:05.869Z,3.22
2023-03-18T02:48:36.798Z,3.27
2023-03-18T02:49:06.938Z,3.27
2023-03-18T02:49:38.914Z,3.27
2023-03-18T02:50:10.083Z,3.27
2023-03-18T02:50:42.325Z,3.27
2023-03-18T02:51:10.943Z,3.27
2023-03-18T02:51:42.613Z,3.27
2023-03-18T02:52:12.853Z,3.38
2023-03-18T02:52:45.272Z,3.38
2023-03-18T02:53:15.855Z,3.38
2023-03-18T02:53:46.714Z,3.38
2023-03-18T02:54:16.884Z,3.38
2023-03-18T02:54:48.565Z,3.50
2023-03-18T02:55:19.321Z,3.50
2023-03-18T02:55:50.613Z,3.50
2023-03-18T02:56:21.368Z,3.50
2023-03-18T02:56:52.577Z,3.50
2023-03-18T02:57:22.863Z,3.38
2023-03-18T02:57:54.548Z,3.27
2023-03-18T02:58:25.855Z,3.22
2023-03-18T02:58:56.605Z,3.22
2023-03-18T02:59:26.947Z,3.11
2023-03-18T02:59:59.268Z,3.11
2023-03-18T03:00:34.155Z,3.11
2023-03-18T03:01:01.527Z,3.11
2023-03-18T03:01:31.299Z,3.11
2023-03-18T03:02:02.777Z,3.11
2023-03-18T03:02:33.316Z,3.22
2023-03-18T03:03:04.747Z,3.22
2023-03-18T03:03:36.003Z,3.22
2023-03-18T03:04:06.602Z,3.27
2023-03-18T03:04:36.891Z,3.38
2023-03-18T03:05:09.319Z,3.38
2023-03-18T03:05:38.907Z,3.38
2023-03-18T03:06:11.875Z,3.38
2023-03-18T03:06:40.971Z,3.27
2023-03-18T03:07:12.593Z,3.27
2023-03-18T03:07:42.903Z,3.27
2023-03-18T03:08:14.554Z,3.27
2023-03-18T03:08:45.906Z,3.27
2023-03-18T03:09:16.647Z,3.38
2023-03-18T03:09:46.910Z,3.50
2023-03-18T03:10:23.662Z,3.61
2023-03-18T03:10:48.844Z,3.61
2023-03-18T03:11:20.711Z,3.61
2023-03-18T03:11:50.920Z,3.61
2023-03-18T03:12:22.713Z,3.61
2023-03-18T03:12:52.844Z,3.61
2023-03-18T03:13:24.555Z,3.61
2023-03-18T03:13:55.891Z,3.61
2023-03-18T03:14:26.620Z,3.72
2023-03-18T03:14:56.905Z,3.72
2023-03-18T03:15:30.152Z,3.72
2023-03-18T03:15:59.174Z,3.72
2023-03-18T03:16:30.806Z,3.72
2023-03-18T03:17:01.746Z,3.61
2023-03-18T03:17:32.582Z,3.61
2023-03-18T03:18:02.930Z,3.61
2023-03-18T03:18:35.037Z,3.50
2023-03-18T03:19:05.858Z,3.50
2023-03-18T03:19:37.654Z,3.38
2023-03-18T03:20:08.112Z,3.38
2023-03-18T03:20:44.001Z,3.38
2023-03-18T03:21:08.856Z,3.27
2023-03-18T03:21:40.576Z,3.27
2023-03-18T03:22:10.878Z,3.27
2023-03-18T03:22:42.557Z,3.27
2023-03-18T03:23:12.963Z,3.27
2023-03-18T03:23:44.551Z,3.27
2023-03-18T03:24:15.982Z,3.27
2023-03-18T03:24:46.656Z,3.27
2023-03-18T03:25:17.266Z,3.27
2023-03-18T03:25:48.548Z,3.27
2023-03-18T03:26:18.893Z,3.27
2023-03-18T03:26:50.666Z,3.27
2023-03-18T03:27:20.869Z,3.27
2023-03-18T03:27:52.604Z,3.22
2023-03-18T03:28:22.948Z,3.22
2023-03-18T03:28:54.593Z,3.22
2023-03-18T03:29:25.901Z,3.22
2023-03-18T03:29:55.889Z,3.22
2023-03-18T03:30:28.514Z,3.22
2023-03-18T03:30:58.375Z,3.22
2023-03-18T03:31:29.778Z,3.11
2023-03-18T03:32:00.120Z,3.00
2023-03-18T03:32:31.572Z,2.72
2023-03-18T03:33:02.015Z,2.38
2023-03-18T03:33:33.597Z,2.27
2023-03-18T03:34:03.964Z,2.11
2023-03-18T03:34:36.582Z,2.11
2023-03-18T03:35:06.787Z,2.11
2023-03-18T03:35:37.583Z,2.11
2023-03-18T03:36:07.942Z,2.00
2023-03-18T03:36:39.904Z,2.00
2023-03-18T03:37:10.648Z,1.88
2023-03-18T03:37:41.568Z,1.77
2023-03-18T03:38:11.869Z,1.77
2023-03-18T03:38:44.065Z,1.77
2023-03-18T03:39:13.891Z,1.88
2023-03-18T03:39:46.578Z,1.88
2023-03-18T03:40:16.377Z,1.88
2023-03-18T03:40:47.553Z,2.00
2023-03-18T03:41:18.745Z,2.00
2023-03-18T03:41:49.593Z,2.11
2023-03-18T03:42:19.972Z,2.22
2023-03-18T03:42:51.568Z,2.27
2023-03-18T03:43:21.902Z,2.27
2023-03-18T03:43:53.569Z,2.38
2023-03-18T03:44:23.879Z,2.50
2023-03-18T03:44:56.572Z,2.61
2023-03-18T03:45:26.661Z,2.61
2023-03-18T03:45:57.632Z,2.61
2023-03-18T03:46:27.998Z,2.61
2023-03-18T03:46:59.565Z,2.61
2023-03-18T03:47:30.205Z,2.50
2023-03-18T03:48:01.718Z,2.38
2023-03-18T03:48:31.928Z,2.27
2023-03-18T03:49:03.625Z,2.22
2023-03-18T03:49:33.873Z,2.11
2023-03-18T03:50:06.944Z,2.11
2023-03-18T03:50:36.560Z,2.00
2023-03-18T03:51:07.574Z,2.00
2023-03-18T03:51:38.220Z,2.00
2023-03-18T03:52:09.719Z,1.88
2023-03-18T03:52:39.956Z,1.77
2023-03-18T03:53:12.236Z,1.72
2023-03-18T03:53:41.870Z,1.72
2023-03-18T03:54:13.560Z,1.61
2023-03-18T03:54:43.851Z,1.61
2023-03-18T03:55:17.048Z,1.38
2023-03-18T03:55:45.873Z,1.38
2023-03-18T03:56:17.809Z,1.38
2023-03-18T03:56:47.846Z,1.38
2023-03-18T03:57:20.085Z,1.38
2023-03-18T03:57:49.874Z,1.50
2023-03-18T03:58:21.601Z,1.50
2023-03-18T03:58:51.896Z,1.50
2023-03-18T03:59:23.678Z,1.50
2023-03-18T03:59:53.895Z,1.50
2023-03-18T04:00:27.871Z,1.38
2023-03-18T04:00:55.980Z,1.38
2023-03-18T04:01:27.666Z,1.38
2023-03-18T04:01:58.491Z,1.38
2023-03-18T04:02:29.840Z,1.38
2023-03-18T04:03:00.251Z,1.50
2023-03-18T04:03:31.625Z,1.50
2023-03-18T04:04:02.780Z,1.50
2023-03-18T04:04:33.608Z,1.50
2023-03-18T04:05:03.958Z,1.50
2023-03-18T04:05:37.137Z,1.50
2023-03-18T04:06:06.082Z,1.38
2023-03-18T04:06:38.248Z,1.38
2023-03-18T04:07:08.075Z,1.38
2023-03-18T04:07:39.672Z,1.27
2023-03-18T04:08:10.112Z,1.27
2023-03-18T04:08:41.724Z,1.27
2023-03-18T04:09:11.890Z,1.27
2023-03-18T04:09:43.679Z,1.27
2023-03-18T04:10:14.303Z,1.38
2023-03-18T04:10:46.645Z,1.50
2023-03-18T04:11:15.938Z,1.61
2023-03-18T04:11:47.546Z,1.61
2023-03-18T04:12:18.761Z,1.61
2023-03-18T04:12:49.644Z,1.72
2023-03-18T04:13:19.937Z,1.72
2023-03-18T04:13:51.566Z,1.72
2023-03-18T04:14:21.947Z,1.72
2023-03-18T04:14:53.823Z,1.72
2023-03-18T04:15:24.893Z,1.72
2023-03-18T04:15:57.197Z,1.72
2023-03-18T04:16:25.907Z,1.72
2023-03-18T04:16:58.238Z,1.72
2023-03-18T04:17:28.588Z,1.72
2023-03-18T04:17:59.686Z,1.72
2023-03-18T04:18:29.914Z,1.77
2023-03-18T04:19:01.627Z,1.77
2023-03-18T04:19:31.896Z,1.88
2023-03-18T04:20:04.385Z,1.88
2023-03-18T04:20:44.599Z,2.00
2023-03-18T04:21:07.654Z,2.11
2023-03-18T04:21:35.872Z,2.11
2023-03-18T04:22:06.910Z,2.22
2023-03-18T04:22:38.990Z,2.27
2023-03-18T04:23:08.858Z,2.27
2023-03-18T04:23:40.545Z,2.27
2023-03-18T04:24:11.653Z,2.27
2023-03-18T04:24:42.577Z,2.27
2023-03-18T04:25:13.226Z,2.27
2023-03-18T04:25:44.550Z,2.27
2023-03-18T04:26:15.951Z,2.27
2023-03-18T04:26:47.697Z,2.27
2023-03-18T04:27:16.848Z,2.27
2023-03-18T04:27:48.743Z,2.22
2023-03-18T04:28:18.813Z,2.22
2023-03-18T04:28:50.724Z,2.22
2023-03-18T04:29:20.886Z,2.22
2023-03-18T04:29:51.873Z,2.22
2023-03-18T04:30:24.533Z,2.22
2023-03-18T04:30:54.302Z,2.22
2023-03-18T04:31:26.617Z,2.22
2023-03-18T04:31:56.021Z,2.11
2023-03-18T04:32:27.657Z,2.00
2023-03-18T04:32:58.272Z,2.00
2023-03-18T04:33:30.205Z,2.00
2023-03-18T04:34:00.150Z,2.00
2023-03-18T04:34:31.620Z,2.00
2023-03-18T04:35:02.535Z,2.00
2023-03-18T04:35:34.047Z,1.88
2023-03-18T04:36:03.879Z,1.77
2023-03-18T04:36:36.595Z,1.77
2023-03-18T04:37:05.846Z,1.72
2023-03-18T04:37:37.758Z,1.61
2023-03-18T04:38:07.944Z,1.50
2023-03-18T04:38:39.567Z,1.50
2023-03-18T04:39:09.852Z,1.38
2023-03-18T04:39:41.576Z,1.38
2023-03-18T04:40:12.485Z,1.38
2023-03-18T04:40:44.317Z,1.38
2023-03-18T04:41:14.012Z,1.27
2023-03-18T04:41:46.575Z,1.27
2023-03-18T04:42:15.865Z,1.38
2023-03-18T04:42:47.577Z,1.38
2023-03-18T04:43:19.148Z,1.38
2023-03-18T04:43:49.577Z,1.50
2023-03-18T04:44:20.680Z,1.50
2023-03-18T04:44:51.550Z,1.61
2023-03-18T04:45:22.741Z,1.61
2023-03-18T04:45:53.582Z,1.61
2023-03-18T04:46:23.978Z,1.61
2023-03-18T04:46:56.860Z,1.72
2023-03-18T04:47:25.999Z,1.72
2023-03-18T04:47:57.638Z,1.77
2023-03-18T04:48:27.917Z,1.77
2023-03-18T04:48:59.585Z,1.77
2023-03-18T04:49:30.039Z,1.88
2023-03-18T04:50:01.876Z,1.88
2023-03-18T04:50:32.723Z,1.88
2023-03-18T04:51:03.977Z,2.00
2023-03-18T04:51:33.861Z,2.00
2023-03-18T04:52:06.570Z,2.00
2023-03-18T04:52:35.881Z,2.00
2023-03-18T04:53:07.676Z,2.00
2023-03-18T04:53:38.146Z,1.88
2023-03-18T04:54:09.623Z,1.88
2023-03-18T04:54:39.874Z,1.88
2023-03-18T04:55:12.878Z,1.88
2023-03-18T04:55:41.843Z,1.88
2023-03-18T04:56:13.608Z,1.88
2023-03-18T04:56:43.948Z,1.88
2023-03-18T04:57:16.545Z,1.88
2023-03-18T04:57:46.552Z,2.11
2023-03-18T04:58:17.598Z,2.22
2023-03-18T04:58:47.824Z,2.27
2023-03-18T04:59:19.555Z,2.27
2023-03-18T04:59:50.053Z,2.27
2023-03-18T05:00:23.754Z,2.27
2023-03-18T05:00:56.124Z,2.27
2023-03-18T05:01:23.653Z,2.22
2023-03-18T05:01:53.932Z,2.11
2023-03-18T05:02:26.541Z,2.00
2023-03-18T05:02:55.866Z,2.00
2023-03-18T05:03:27.537Z,2.00
2023-03-18T05:03:58.236Z,2.00
2023-03-18T05:04:29.742Z,2.00
2023-03-18T05:04:59.874Z,2.00
2023-03-18T05:05:32.345Z,2.00
2023-03-18T05:06:02.187Z,1.88
2023-03-18T05:06:34.451Z,1.88
2023-03-18T05:07:03.916Z,1.88
2023-03-18T05:07:36.578Z,1.88
2023-03-18T05:08:05.883Z,1.88
2023-03-18T05:08:37.562Z,1.88
2023-03-18T05:09:07.848Z,1.88
2023-03-18T05:09:39.633Z,1.88
2023-03-18T05:10:10.482Z,1.88
2023-03-18T05:10:41.595Z,2.00
2023-03-18T05:11:12.471Z,2.00
2023-03-18T05:11:43.620Z,2.00
2023-03-18T05:12:13.989Z,2.00
2023-03-18T05:12:46.608Z,2.00
2023-03-18T05:13:16.158Z,2.11
2023-03-18T05:13:49.039Z,2.11
2023-03-18T05:14:19.656Z,2.22
2023-03-18T05:14:49.710Z,2.22
2023-03-18T05:15:20.956Z,2.22
2023-03-18T05:15:51.803Z,2.22
2023-03-18T05:16:22.206Z,2.22
2023-03-18T05:16:54.791Z,2.11
2023-03-18T05:17:23.971Z,2.11
2023-03-18T05:17:56.629Z,2.11
2023-03-18T05:18:25.970Z,2.11
2023-03-18T05:18:57.705Z,2.11
2023-03-18T05:19:28.015Z,2.11
2023-03-18T05:19:59.699Z,2.11
2023-03-18T05:20:43.550Z,2.11
2023-03-18T05:21:01.789Z,2.11
2023-03-18T05:21:31.990Z,2.11
2023-03-18T05:22:03.760Z,2.11
2023-03-18T05:22:33.995Z,2.11
2023-03-18T05:23:07.390Z,2.11
2023-03-18T05:23:36.173Z,2.00
2023-03-18T05:24:07.704Z,2.00
2023-03-18T05:24:38.844Z,2.00
2023-03-18T05:25:10.172Z,2.00
2023-03-18T05:25:40.045Z,2.00
2023-03-18T05:26:11.812Z,2.00
2023-03-18T05:26:42.037Z,2.00
2023-03-18T05:27:14.406Z,2.00
2023-03-18T05:27:44.040Z,2.00
2023-03-18T05:28:16.664Z,1.88
2023-03-18T05:28:46.135Z,1.88
2023-03-18T05:29:17.064Z,1.88
2023-03-18T05:29:48.001Z,1.88
2023-03-18T05:30:20.948Z,1.88
2023-03-18T05:30:50.251Z,1.88
2023-03-18T05:31:22.057Z,1.88
2023-03-18T05:31:52.022Z,2.00
2023-03-18T05:32:23.686Z,2.00
2023-03-18T05:32:54.008Z,2.00
2023-03-18T05:33:26.687Z,2.00
2023-03-18T05:33:56.006Z,1.88
2023-03-18T05:34:27.723Z,1.88
2023-03-18T05:34:58.305Z,1.77
2023-03-18T05:35:30.740Z,1.77
2023-03-18T05:36:00.440Z,1.77
2023-03-18T05:36:31.716Z,1.77
2023-03-18T05:37:02.061Z,1.77
2023-03-18T05:37:33.705Z,1.72
2023-03-18T05:38:04.582Z,1.61
2023-03-18T05:38:36.669Z,1.61
2023-03-18T05:39:06.022Z,1.61
2023-03-18T05:39:37.694Z,1.61
2023-03-18T05:40:08.572Z,1.61
2023-03-18T05:40:44.911Z,1.50
2023-03-18T05:41:10.094Z,1.50
2023-03-18T05:41:41.674Z,1.50
2023-03-18T05:42:12.140Z,1.50
2023-03-18T05:42:55.394Z,1.50
2023-03-18T05:43:13.995Z,1.50
2023-03-18T05:43:49.938Z,1.50
2023-03-18T05:44:15.986Z,1.50
2023-03-18T05:44:47.584Z,1.50
2023-03-18T05:45:20.489Z,1.61
2023-03-18T05:45:49.102Z,1.61
2023-03-18T05:46:20.930Z,1.72
2023-03-18T05:46:51.007Z,1.72
2023-03-18T05:47:22.780Z,1.72
2023-03-18T05:47:53.176Z,1.77
2023-03-18T05:48:24.667Z,1.77
2023-03-18T05:48:56.027Z,2.00
2023-03-18T05:49:26.682Z,2.00
2023-03-18T05:49:56.972Z,2.00
2023-03-18T05:50:29.171Z,2.00
2023-03-18T05:50:59.109Z,2.00
2023-03-18T05:51:31.357Z,2.00
2023-03-18T05:52:01.812Z,2.00
2023-03-18T05:52:32.677Z,2.00
2023-03-18T05:53:03.061Z,2.00
2023-03-18T05:53:34.703Z,2.00
2023-03-18T05:54:06.656Z,2.00
2023-03-18T05:54:36.691Z,2.11
2023-03-18T05:55:07.644Z,2.11
2023-03-18T05:55:39.005Z,2.22
2023-03-18T05:56:09.006Z,2.22
2023-03-18T05:56:40.780Z,2.22
2023-03-18T05:57:10.948Z,2.22
2023-03-18T05:57:43.663Z,2.22
2023-03-18T05:58:13.692Z,2.27
2023-03-18T05:58:44.680Z,2.27
2023-03-18T05:59:16.055Z,2.27
2023-03-18T05:59:47.826Z,2.38
2023-03-18T06:00:18.687Z,2.38
2023-03-18T06:00:53.824Z,2.38
2023-03-18T06:01:19.040Z,2.50
2023-03-18T06:01:51.594Z,2.50
2023-03-18T06:02:21.697Z,2.50
2023-03-18T06:02:52.691Z,2.50
2023-03-18T06:03:23.096Z,2.50
2023-03-18T06:03:54.732Z,2.38
2023-03-18T06:04:25.961Z,2.50
2023-03-18T06:04:57.176Z,2.50
2023-03-18T06:05:27.450Z,2.50
2023-03-18T06:05:58.968Z,2.50
2023-03-18T06:06:28.988Z,2.50
2023-03-18T06:07:01.548Z,2.50
2023-03-18T06:07:31.045Z,2.50
2023-03-18T06:08:03.057Z,2.50
2023-03-18T06:08:33.009Z,2.50
2023-03-18T06:09:04.724Z,2.38
2023-03-18T06:09:36.008Z,2.38
2023-03-18T06:10:07.215Z,2.38
2023-03-18T06:10:37.097Z,2.38
2023-03-18T06:11:08.682Z,2.27
2023-03-18T06:11:39.690Z,2.27
2023-03-18T06:12:10.753Z,2.27
2023-03-18T06:12:41.193Z,2.27
2023-03-18T06:13:12.690Z,2.27
2023-03-18T06:13:43.037Z,2.27
2023-03-18T06:14:14.729Z,2.27
2023-03-18T06:14:46.037Z,2.27
2023-03-18T06:15:17.461Z,2.38
2023-03-18T06:15:47.765Z,2.38
2023-03-18T06:16:19.171Z,2.38
2023-03-18T06:16:49.084Z,2.38
2023-03-18T06:17:21.572Z,2.38
2023-03-18T06:17:51.049Z,2.38
2023-03-18T06:18:23.268Z,2.50
2023-03-18T06:18:53.002Z,2.50
2023-03-18T06:19:24.679Z,2.50
2023-03-18T06:19:55.983Z,2.50
2023-03-18T06:20:39.070Z,2.50
2023-03-18T06:20:57.078Z,2.50
2023-03-18T06:21:28.706Z,2.61
2023-03-18T06:21:59.074Z,2.61
2023-03-18T06:22:30.901Z,2.61
2023-03-18T06:23:01.216Z,2.61
2023-03-18T06:23:32.703Z,2.72
2023-03-18T06:24:03.196Z,2.72
2023-03-18T06:24:34.694Z,2.72
2023-03-18T06:25:06.698Z,2.72
2023-03-18T06:25:37.585Z,2.77
2023-03-18T06:26:07.040Z,2.77
2023-03-18T06:26:39.041Z,2.77
2023-03-18T06:27:09.039Z,2.77
2023-03-18T06:27:40.830Z,2.77
2023-03-18T06:28:10.994Z,2.77
2023-03-18T06:28:42.670Z,2.77
2023-03-18T06:29:13.271Z,2.77
2023-03-18T06:29:44.062Z,2.77
2023-03-18T06:30:17.560Z,2.77
2023-03-18T06:30:46.865Z,2.77
2023-03-18T06:31:17.093Z,2.88
2023-03-18T06:31:49.217Z,2.88
2023-03-18T06:32:19.036Z,2.88
2023-03-18T06:32:50.875Z,2.88
2023-03-18T06:33:21.043Z,2.88
2023-03-18T06:33:52.688Z,2.88
2023-03-18T06:34:22.997Z,3.00
2023-03-18T06:34:54.704Z,3.00
2023-03-18T06:35:26.644Z,3.00
2023-03-18T06:35:57.948Z,3.00
2023-03-18T06:36:26.996Z,3.00
2023-03-18T06:36:59.351Z,3.00
2023-03-18T06:37:28.984Z,3.00
2023-03-18T06:38:00.738Z,2.88
2023-03-18T06:38:31.768Z,2.72
2023-03-18T06:39:02.817Z,2.61
2023-03-18T06:39:33.021Z,2.27
2023-03-18T06:40:04.712Z,2.11
2023-03-18T06:40:41.409Z,2.11
2023-03-18T06:41:06.697Z,2.11
2023-03-18T06:41:37.019Z,2.22
2023-03-18T06:42:08.694Z,2.22
2023-03-18T06:42:39.208Z,2.27
2023-03-18T06:43:11.018Z,2.27
2023-03-18T06:43:41.065Z,2.27
2023-03-18T06:44:12.677Z,2.38
2023-03-18T06:44:42.999Z,2.38
2023-03-18T06:45:16.263Z,2.50
2023-03-18T06:45:46.037Z,2.61
2023-03-18T06:46:16.775Z,2.72
2023-03-18T06:46:46.989Z,2.72
2023-03-18T06:47:19.471Z,2.77
2023-03-18T06:47:49.041Z,3.00
2023-03-18T06:48:20.826Z,3.11
2023-03-18T06:48:51.084Z,3.22
2023-03-18T06:49:22.794Z,3.22
2023-03-18T06:49:53.023Z,3.22
2023-03-18T06:50:25.264Z,3.22
2023-03-18T06:50:55.940Z,3.22
2023-03-18T06:51:26.699Z,3.27
2023-03-18T06:51:57.621Z,3.38
2023-03-18T06:52:28.674Z,3.38
2023-03-18T06:52:59.113Z,3.38